Terminal Aerodrome Forecast
Issued by NWS

Home | Current Version | Previous Version | Text Only | Print | Product List | Glossary Off
Versions: 1 2 3 4 5 6 7 8 9 10 11 12 13 14 15 16 17

000
FTUS43 KICT 271742
TAFRSL
TAF
KRSL 271742Z 2718/2818 12010KT P6SM VCTS SCT009 OVC015CB
      TEMPO 2718/2719 BKN009CB
     FM271900 15012KT P6SM VCTS SCT025 BKN035CB
      TEMPO 2719/2720 BKN025CB
     FM280300 30005KT P6SM SCT040=

USA.gov is the U.S. government's official web portal to all federal, state and local government web resources and services.